PWSweather.com
Personal Weather Stations
Station Observations
IONTARIO88
Lincoln, ON L0R

Lincoln, ON L0R

Lat: 43.1763563, Lon: -79.4719525

Elevation: 297

Station Type: Davis Vantage Pro 2 Plus

http://www.beamsvillewx.ca

Latest ConditionsUpdated 4:45:00 PM EDT Monday, Sep 23, 2019
Currently Today's Max Today's Min Today's Average
Temperature 78.4°F25.8°C 78.4°F25.8°C 71.1°F21.7°C 75.1°F23.9°C
Dew Point 62.4°F16.9°C 68.5°F20.3°C 62.4°F16.9°C 65.2°F18.4°C
Winds 5.0 mph NW8.0 kmh NW 10.0 mph -16.1 kmh - - 6.1 mph 9.8 kmh
Wind Gusts 11.0 mph17.7 kmh 23.0 mph37.0 kmh - -
Humidity 57% 83% 57% 72%
Pressure 29.69 in1005.4 mb 29.76 in1007.8 mb 29.68 in1005.1 mb -
Precipitation - 0.01 in0.3 mm - -
Hour Temp Dew Point Humidity Winds Wind Gusts Pressure Precip Precip Rate Daily Precip Total
04:45 PM 78.4°F25.8°C 62.4°F16.9°C 57% 5.0 mph NW8.0 kmh NW 11.0 mph17.7 kmh 29.69 in1005.4 mb 0.00 in0.0 mm 0.00 in0.0 mm 0.01 in0.3 mm
04:30 PM 78.3°F25.7°C 62.8°F17.1°C 59% 5.0 mph NW8.0 kmh NW 9.0 mph14.5 kmh 29.69 in1005.4 mb 0.00 in0.0 mm 0.00 in0.0 mm 0.01 in0.3 mm
04:15 PM 78.4°F25.8°C 63.4°F17.4°C 60% 6.0 mph NW9.7 kmh NW 11.0 mph17.7 kmh 29.69 in1005.4 mb 0.00 in0.0 mm 0.00 in0.0 mm 0.01 in0.3 mm
04:00 PM 77.0°F25.0°C 63.9°F17.7°C 64% 6.0 mph NW9.7 kmh NW 12.0 mph19.3 kmh 29.70 in1005.8 mb 0.00 in0.0 mm 0.00 in0.0 mm 0.01 in0.3 mm
03:45 PM 74.5°F23.6°C 63.2°F17.3°C 68% 4.0 mph NW6.4 kmh NW 9.0 mph14.5 kmh 29.70 in1005.8 mb 0.00 in0.0 mm 0.00 in0.0 mm 0.01 in0.3 mm
03:30 PM 74.7°F23.7°C 63.4°F17.4°C 68% 4.0 mph NW6.4 kmh NW 9.0 mph14.5 kmh 29.70 in1005.8 mb 0.00 in0.0 mm 0.00 in0.0 mm 0.01 in0.3 mm
03:15 PM 74.8°F23.8°C 63.6°F17.6°C 68% 7.0 mph NW11.3 kmh NW 11.0 mph17.7 kmh 29.70 in1005.8 mb 0.00 in0.0 mm 0.00 in0.0 mm 0.01 in0.3 mm
03:00 PM 75.4°F24.1°C 63.2°F17.3°C 66% 7.0 mph NW11.3 kmh NW 14.0 mph22.5 kmh 29.70 in1005.8 mb 0.00 in0.0 mm 0.00 in0.0 mm 0.01 in0.3 mm
02:45 PM 76.3°F24.6°C 63.6°F17.6°C 65% 7.0 mph NW11.3 kmh NW 13.0 mph20.9 kmh 29.70 in1005.8 mb 0.00 in0.0 mm 0.00 in0.0 mm 0.01 in0.3 mm
02:30 PM 76.6°F24.8°C 64.4°F18.0°C 66% 7.0 mph NW11.3 kmh NW 13.0 mph20.9 kmh 29.69 in1005.4 mb 0.00 in0.0 mm 0.00 in0.0 mm 0.01 in0.3 mm
02:15 PM 76.3°F24.6°C 64.9°F18.3°C 68% 6.0 mph NW9.7 kmh NW 12.0 mph19.3 kmh 29.70 in1005.8 mb 0.00 in0.0 mm 0.00 in0.0 mm 0.01 in0.3 mm
02:00 PM 74.8°F23.8°C 64.0°F17.8°C 69% 7.0 mph NW11.3 kmh NW 13.0 mph20.9 kmh 29.70 in1005.8 mb 0.00 in0.0 mm 0.00 in0.0 mm 0.01 in0.3 mm
01:45 PM 75.6°F24.2°C 63.8°F17.7°C 67% 8.0 mph WNW12.9 kmh WNW 16.0 mph25.7 kmh 29.70 in1005.8 mb 0.00 in0.0 mm 0.00 in0.0 mm 0.01 in0.3 mm
01:30 PM 76.5°F24.7°C 64.7°F18.2°C 67% 8.0 mph NW12.9 kmh NW 15.0 mph24.1 kmh 29.69 in1005.4 mb 0.00 in0.0 mm 0.00 in0.0 mm 0.01 in0.3 mm
01:15 PM 76.5°F24.7°C 65.9°F18.8°C 70% 6.0 mph NW9.7 kmh NW 15.0 mph24.1 kmh 29.69 in1005.4 mb 0.00 in0.0 mm 0.00 in0.0 mm 0.01 in0.3 mm
01:00 PM 75.4°F24.1°C 64.9°F18.3°C 70% 7.0 mph WNW11.3 kmh WNW 16.0 mph25.7 kmh 29.70 in1005.8 mb 0.00 in0.0 mm 0.00 in0.0 mm 0.01 in0.3 mm
12:45 PM 75.0°F23.9°C 65.4°F18.6°C 72% 6.0 mph NW9.7 kmh NW 13.0 mph20.9 kmh 29.70 in1005.8 mb 0.00 in0.0 mm 0.00 in0.0 mm 0.01 in0.3 mm
12:30 PM 75.7°F24.3°C 66.1°F18.9°C 72% 5.0 mph W8.0 kmh W 14.0 mph22.5 kmh 29.70 in1005.8 mb 0.00 in0.0 mm 0.00 in0.0 mm 0.01 in0.3 mm
12:15 PM 75.6°F24.2°C 66.7°F19.3°C 74% 3.0 mph WSW4.8 kmh WSW 8.0 mph12.9 kmh 29.70 in1005.8 mb 0.00 in0.0 mm 0.00 in0.0 mm 0.01 in0.3 mm
12:00 PM 75.0°F23.9°C 66.2°F19.0°C 74% 4.0 mph W6.4 kmh W 10.0 mph16.1 kmh 29.70 in1005.8 mb 0.00 in0.0 mm 0.00 in0.0 mm 0.01 in0.3 mm
11:45 AM 75.9°F24.4°C 65.8°F18.8°C 71% 6.0 mph W9.7 kmh W 13.0 mph20.9 kmh 29.70 in1005.8 mb 0.00 in0.0 mm 0.00 in0.0 mm 0.01 in0.3 mm
11:30 AM 77.5°F25.3°C 68.2°F20.1°C 73% 6.0 mph WSW9.7 kmh WSW 13.0 mph20.9 kmh 29.70 in1005.8 mb 0.00 in0.0 mm 0.00 in0.0 mm 0.01 in0.3 mm
11:15 AM 77.2°F25.1°C 68.2°F20.1°C 74% 7.0 mph SW11.3 kmh SW 14.0 mph22.5 kmh 29.70 in1005.8 mb 0.00 in0.0 mm 0.00 in0.0 mm 0.01 in0.3 mm
11:00 AM 76.6°F24.8°C 68.5°F20.3°C 76% 6.0 mph WSW9.7 kmh WSW 15.0 mph24.1 kmh 29.71 in1006.1 mb 0.00 in0.0 mm 0.00 in0.0 mm 0.01 in0.3 mm
10:45 AM 75.7°F24.3°C 68.4°F20.2°C 78% 5.0 mph WSW8.0 kmh WSW 13.0 mph20.9 kmh 29.71 in1006.1 mb 0.00 in0.0 mm 0.00 in0.0 mm 0.01 in0.3 mm
10:30 AM 74.8°F23.8°C 67.9°F19.9°C 79% 6.0 mph SW9.7 kmh SW 12.0 mph19.3 kmh 29.71 in1006.1 mb 0.00 in0.0 mm 0.00 in0.0 mm 0.01 in0.3 mm
10:15 AM 75.0°F23.9°C 68.1°F20.1°C 79% 6.0 mph SW9.7 kmh SW 14.0 mph22.5 kmh 29.71 in1006.1 mb 0.00 in0.0 mm 0.00 in0.0 mm 0.01 in0.3 mm
10:00 AM 75.2°F24.0°C 68.2°F20.1°C 79% 6.0 mph WSW9.7 kmh WSW 15.0 mph24.1 kmh 29.70 in1005.8 mb 0.00 in0.0 mm 0.00 in0.0 mm 0.01 in0.3 mm
09:45 AM 75.2°F24.0°C 68.2°F20.1°C 79% 7.0 mph SW11.3 kmh SW 14.0 mph22.5 kmh 29.70 in1005.8 mb 0.00 in0.0 mm 0.00 in0.0 mm 0.01 in0.3 mm
09:30 AM 74.7°F23.7°C 68.4°F20.2°C 81% 7.0 mph SW11.3 kmh SW 16.0 mph25.7 kmh 29.70 in1005.8 mb 0.00 in0.0 mm 0.00 in0.0 mm 0.01 in0.3 mm
09:15 AM 74.1°F23.4°C 67.6°F19.8°C 80% 4.0 mph SSW6.4 kmh SSW 13.0 mph20.9 kmh 29.70 in1005.8 mb 0.00 in0.0 mm 0.00 in0.0 mm 0.01 in0.3 mm
09:00 AM 73.9°F23.3°C 67.4°F19.7°C 80% 6.0 mph SW9.7 kmh SW 13.0 mph20.9 kmh 29.70 in1005.8 mb 0.00 in0.0 mm 0.00 in0.0 mm 0.01 in0.3 mm
08:45 AM 73.6°F23.1°C 67.0°F19.4°C 80% 6.0 mph SW9.7 kmh SW 14.0 mph22.5 kmh 29.70 in1005.8 mb 0.00 in0.0 mm 0.00 in0.0 mm 0.01 in0.3 mm
08:30 AM 73.4°F23.0°C 66.9°F19.4°C 80% 6.0 mph SW9.7 kmh SW 13.0 mph20.9 kmh 29.70 in1005.8 mb 0.00 in0.0 mm 0.00 in0.0 mm 0.01 in0.3 mm
08:15 AM 73.0°F22.8°C 66.5°F19.2°C 80% 6.0 mph SW9.7 kmh SW 18.0 mph29.0 kmh 29.69 in1005.4 mb 0.00 in0.0 mm 0.00 in0.0 mm 0.01 in0.3 mm
08:00 AM 72.9°F22.7°C 66.0°F18.9°C 79% 7.0 mph SSW11.3 kmh SSW 14.0 mph22.5 kmh 29.69 in1005.4 mb 0.00 in0.0 mm 0.00 in0.0 mm 0.01 in0.3 mm
07:45 AM 72.9°F22.7°C 66.0°F18.9°C 79% 7.0 mph SSW11.3 kmh SSW 17.0 mph27.4 kmh 29.68 in1005.1 mb 0.00 in0.0 mm 0.00 in0.0 mm 0.01 in0.3 mm
07:30 AM 72.9°F22.7°C 65.6°F18.7°C 78% 8.0 mph SSW12.9 kmh SSW 18.0 mph29.0 kmh 29.68 in1005.1 mb 0.00 in0.0 mm 0.00 in0.0 mm 0.01 in0.3 mm
07:15 AM 72.9°F22.7°C 65.6°F18.7°C 78% 7.0 mph SSW11.3 kmh SSW 16.0 mph25.7 kmh 29.68 in1005.1 mb 0.00 in0.0 mm 0.00 in0.0 mm 0.01 in0.3 mm
07:00 AM 72.7°F22.6°C 65.4°F18.6°C 78% 7.0 mph SSW11.3 kmh SSW 17.0 mph27.4 kmh 29.68 in1005.1 mb 0.00 in0.0 mm 0.00 in0.0 mm 0.01 in0.3 mm
06:45 AM 72.5°F22.5°C 65.2°F18.4°C 78% 7.0 mph SSW11.3 kmh SSW 18.0 mph29.0 kmh 29.68 in1005.1 mb 0.00 in0.0 mm 0.00 in0.0 mm 0.01 in0.3 mm
06:30 AM 72.0°F22.2°C 65.5°F18.6°C 80% 9.0 mph SSW14.5 kmh SSW 22.0 mph35.4 kmh 29.68 in1005.1 mb 0.00 in0.0 mm 0.00 in0.0 mm 0.01 in0.3 mm
06:15 AM 71.6°F22.0°C 65.5°F18.6°C 81% 7.0 mph SSW11.3 kmh SSW 22.0 mph35.4 kmh 29.68 in1005.1 mb 0.01 in0.3 mm 0.00 in0.0 mm 0.01 in0.3 mm
06:00 AM 71.4°F21.9°C 65.6°F18.7°C 82% 9.0 mph SSW14.5 kmh SSW 17.0 mph27.4 kmh 29.69 in1005.4 mb 0.01 in0.3 mm 0.00 in0.0 mm 0.01 in0.3 mm
05:45 AM 71.1°F21.7°C 65.6°F18.7°C 83% 8.0 mph SSW12.9 kmh SSW 16.0 mph25.7 kmh 29.68 in1005.1 mb 0.01 in0.3 mm 0.00 in0.0 mm 0.01 in0.3 mm
05:30 AM 71.2°F21.8°C 65.8°F18.8°C 83% 7.0 mph SSW11.3 kmh SSW 20.0 mph32.2 kmh 29.69 in1005.4 mb 0.01 in0.3 mm 0.04 in1.0 mm 0.01 in0.3 mm
05:15 AM 72.3°F22.4°C 65.8°F18.8°C 80% 9.0 mph SSW14.5 kmh SSW 20.0 mph32.2 kmh 29.70 in1005.8 mb 0.00 in0.0 mm 0.00 in0.0 mm 0.00 in0.0 mm
05:00 AM 73.6°F23.1°C 65.9°F18.8°C 77% 10.0 mph SW16.1 kmh SW 22.0 mph35.4 kmh 29.70 in1005.8 mb 0.00 in0.0 mm 0.00 in0.0 mm 0.00 in0.0 mm
04:45 AM 75.4°F24.1°C 64.9°F18.3°C 70% 9.0 mph SW14.5 kmh SW 23.0 mph37.0 kmh 29.70 in1005.8 mb 0.00 in0.0 mm 0.00 in0.0 mm 0.00 in0.0 mm
04:30 AM 74.8°F23.8°C 64.0°F17.8°C 69% 6.0 mph SSW9.7 kmh SSW 17.0 mph27.4 kmh 29.70 in1005.8 mb 0.00 in0.0 mm 0.00 in0.0 mm 0.00 in0.0 mm
04:15 AM 75.0°F23.9°C 63.7°F17.6°C 68% 3.0 mph S4.8 kmh S 12.0 mph19.3 kmh 29.70 in1005.8 mb 0.00 in0.0 mm 0.00 in0.0 mm 0.00 in0.0 mm
04:00 AM 75.0°F23.9°C 63.7°F17.6°C 68% 4.0 mph SSW6.4 kmh SSW 10.0 mph16.1 kmh 29.70 in1005.8 mb 0.00 in0.0 mm 0.00 in0.0 mm 0.00 in0.0 mm
03:45 AM 75.2°F24.0°C 63.9°F17.7°C 68% 4.0 mph SSW6.4 kmh SSW 13.0 mph20.9 kmh 29.70 in1005.8 mb 0.00 in0.0 mm 0.00 in0.0 mm 0.00 in0.0 mm
03:30 AM 75.9°F24.4°C 64.2°F17.9°C 67% 7.0 mph SW11.3 kmh SW 17.0 mph27.4 kmh 29.73 in1006.8 mb 0.00 in0.0 mm 0.00 in0.0 mm 0.00 in0.0 mm
03:15 AM 76.5°F24.7°C 63.4°F17.4°C 64% 6.0 mph SW9.7 kmh SW 15.0 mph24.1 kmh 29.73 in1006.8 mb 0.00 in0.0 mm 0.00 in0.0 mm 0.00 in0.0 mm
03:00 AM 76.6°F24.8°C 63.1°F17.3°C 63% 5.0 mph SSW8.0 kmh SSW 17.0 mph27.4 kmh 29.73 in1006.8 mb 0.00 in0.0 mm 0.00 in0.0 mm 0.00 in0.0 mm
02:45 AM 76.8°F24.9°C 63.3°F17.4°C 63% 5.0 mph SW8.0 kmh SW 14.0 mph22.5 kmh 29.73 in1006.8 mb 0.00 in0.0 mm 0.00 in0.0 mm 0.00 in0.0 mm
02:30 AM 77.2°F25.1°C 63.2°F17.3°C 62% 5.0 mph SSW8.0 kmh SSW 12.0 mph19.3 kmh 29.74 in1007.1 mb 0.00 in0.0 mm 0.00 in0.0 mm 0.00 in0.0 mm
02:15 AM 77.4°F25.2°C 63.3°F17.4°C 62% 6.0 mph SSW9.7 kmh SSW 17.0 mph27.4 kmh 29.74 in1007.1 mb 0.00 in0.0 mm 0.00 in0.0 mm 0.00 in0.0 mm
02:00 AM 77.0°F25.0°C 63.4°F17.4°C 63% 6.0 mph SSW9.7 kmh SSW 20.0 mph32.2 kmh 29.74 in1007.1 mb 0.00 in0.0 mm 0.00 in0.0 mm 0.00 in0.0 mm
01:45 AM 76.6°F24.8°C 63.5°F17.5°C 64% 5.0 mph SSW8.0 kmh SSW 15.0 mph24.1 kmh 29.74 in1007.1 mb 0.00 in0.0 mm 0.00 in0.0 mm 0.00 in0.0 mm
01:30 AM 76.5°F24.7°C 63.8°F17.7°C 65% 5.0 mph SSW8.0 kmh SSW 13.0 mph20.9 kmh 29.75 in1007.5 mb 0.00 in0.0 mm 0.00 in0.0 mm 0.00 in0.0 mm
01:15 AM 76.5°F24.7°C 64.3°F17.9°C 66% 6.0 mph SSW9.7 kmh SSW 15.0 mph24.1 kmh 29.75 in1007.5 mb 0.00 in0.0 mm 0.00 in0.0 mm 0.00 in0.0 mm
01:00 AM 76.5°F24.7°C 64.3°F17.9°C 66% 6.0 mph S9.7 kmh S 17.0 mph27.4 kmh 29.75 in1007.5 mb 0.00 in0.0 mm 0.00 in0.0 mm 0.00 in0.0 mm
12:45 AM 76.5°F24.7°C 64.3°F17.9°C 66% 5.0 mph S8.0 kmh S 15.0 mph24.1 kmh 29.75 in1007.5 mb 0.00 in0.0 mm 0.00 in0.0 mm 0.00 in0.0 mm
12:30 AM 76.3°F24.6°C 64.5°F18.1°C 67% 4.0 mph SSW6.4 kmh SSW 14.0 mph22.5 kmh 29.75 in1007.5 mb 0.00 in0.0 mm 0.00 in0.0 mm 0.00 in0.0 mm
12:15 AM 76.1°F24.5°C 64.3°F17.9°C 67% 5.0 mph S8.0 kmh S 14.0 mph22.5 kmh 29.76 in1007.8 mb 0.00 in0.0 mm 0.00 in0.0 mm 0.00 in0.0 mm
12:00 AM 75.7°F24.3°C 64.0°F17.8°C 67% 3.0 mph S4.8 kmh S 8.0 mph12.9 kmh 29.76 in1007.8 mb 0.00 in0.0 mm 0.00 in0.0 mm 0.00 in0.0 mm